KTPA/TPA METAR and TAF weather

Enter ICAO airport designator
Station Type Date Time Source
KTPA METAR 2020/10/29 16:53 UTC NOAA

KTPA 291653Z 19012G19KT 10SM FEW025 SCT040 29/23 A2993 RMK AO2 SLP136 T02940233


Station Type Date Time Source
KTPA Decoded METAR 2020/10/29 16:53 UTC NOAA

TAMPA INTERNATIONAL AIRPORT , FL, United States (KTPA) 27-58N 082-32W 11M
Oct 29, 2020 - 12:53 PM EDT / 2020.10.29 1653 UTC
Wind: from the S (190 degrees) at 14 MPH (12 KT) gusting to 22 MPH (19 KT):0
Visibility: 10 mile(s):0
Sky conditions: partly cloudy
Temperature: 84.9 F (29.4 C)
Dew Point: 73.9 F (23.3 C)
Relative Humidity: 69%
Pressure (altimeter): 29.93 in. Hg (1013 hPa)
ob: KTPA 291653Z 19012G19KT 10SM FEW025 SCT040 29/23 A2993 RMK AO2 SLP136 T02940233
cycle: 17

Station Type Date Time Source
KTPA TAF 2020/10/29 15:04 UTC NOAA

TAF
AMD KTPA 291502Z 2915/3018 19012KT P6SM SCT025
FM291800 22013G20KT P6SM SCT035
FM292200 25009KT P6SM VCSH SCT035 SCT250
FM300200 26009KT P6SM VCSH SCT020 BKN035
TEMPO 3002/3005 BKN020
FM300500 30010KT P6SM SCT020 BKN040
FM300900 34008KT P6SM SCT040

Example: see airport list